sensor_id;sensor_type;location;lat;lon;timestamp;temperature;humidity
66928;DHT22;59882;45.624;11.698;2024-01-10T00:02:01;2.20;72.10
66928;DHT22;59882;45.624;11.698;2024-01-10T00:04:27;2.20;72.10
66928;DHT22;59882;45.624;11.698;2024-01-10T00:06:52;2.20;71.80
66928;DHT22;59882;45.624;11.698;2024-01-10T00:09:18;2.30;71.80
66928;DHT22;59882;45.624;11.698;2024-01-10T00:11:43;2.30;71.80
66928;DHT22;59882;45.624;11.698;2024-01-10T00:14:09;2.30;72.10
66928;DHT22;59882;45.624;11.698;2024-01-10T00:16:35;2.30;71.90
66928;DHT22;59882;45.624;11.698;2024-01-10T00:19:01;2.30;72.00
66928;DHT22;59882;45.624;11.698;2024-01-10T00:21:27;2.30;71.80
66928;DHT22;59882;45.624;11.698;2024-01-10T00:23:53;2.30;71.70
66928;DHT22;59882;45.624;11.698;2024-01-10T00:26:18;2.30;71.60
66928;DHT22;59882;45.624;11.698;2024-01-10T00:28:44;2.40;71.60
66928;DHT22;59882;45.624;11.698;2024-01-10T00:31:13;2.40;71.40
66928;DHT22;59882;45.624;11.698;2024-01-10T00:33:39;2.40;71.50
66928;DHT22;59882;45.624;11.698;2024-01-10T00:36:05;2.40;71.30
66928;DHT22;59882;45.624;11.698;2024-01-10T00:38:31;2.40;71.20
66928;DHT22;59882;45.624;11.698;2024-01-10T00:40:57;2.40;71.40
66928;DHT22;59882;45.624;11.698;2024-01-10T00:43:22;2.40;71.10
66928;DHT22;59882;45.624;11.698;2024-01-10T00:45:48;2.40;71.60
66928;DHT22;59882;45.624;11.698;2024-01-10T00:48:14;2.30;71.50
66928;DHT22;59882;45.624;11.698;2024-01-10T00:50:39;2.30;71.50
66928;DHT22;59882;45.624;11.698;2024-01-10T00:53:05;2.30;71.50
66928;DHT22;59882;45.624;11.698;2024-01-10T00:55:31;2.30;71.40
66928;DHT22;59882;45.624;11.698;2024-01-10T00:57:56;2.20;71.70
66928;DHT22;59882;45.624;11.698;2024-01-10T01:00:22;2.30;71.60
66928;DHT22;59882;45.624;11.698;2024-01-10T01:02:47;2.20;71.40
66928;DHT22;59882;45.624;11.698;2024-01-10T01:05:13;2.30;71.50
66928;DHT22;59882;45.624;11.698;2024-01-10T01:07:39;2.30;71.80
66928;DHT22;59882;45.624;11.698;2024-01-10T01:10:05;2.30;71.80
66928;DHT22;59882;45.624;11.698;2024-01-10T01:12:31;2.30;71.60
66928;DHT22;59882;45.624;11.698;2024-01-10T01:14:56;2.30;71.70
66928;DHT22;59882;45.624;11.698;2024-01-10T01:17:22;2.30;71.80
66928;DHT22;59882;45.624;11.698;2024-01-10T01:19:48;2.30;71.60
66928;DHT22;59882;45.624;11.698;2024-01-10T01:22:14;2.30;71.60
66928;DHT22;59882;45.624;11.698;2024-01-10T01:24:39;2.40;71.90
66928;DHT22;59882;45.624;11.698;2024-01-10T01:27:05;2.30;71.70
66928;DHT22;59882;45.624;11.698;2024-01-10T01:29:31;2.40;71.90
66928;DHT22;59882;45.624;11.698;2024-01-10T01:31:56;2.30;72.00
66928;DHT22;59882;45.624;11.698;2024-01-10T01:34:22;2.30;72.30
66928;DHT22;59882;45.624;11.698;2024-01-10T01:36:48;2.30;72.50
66928;DHT22;59882;45.624;11.698;2024-01-10T01:39:14;2.20;72.40
66928;DHT22;59882;45.624;11.698;2024-01-10T01:41:40;2.10;72.80
66928;DHT22;59882;45.624;11.698;2024-01-10T01:44:05;2.10;72.90
66928;DHT22;59882;45.624;11.698;2024-01-10T01:46:32;2.10;73.10
66928;DHT22;59882;45.624;11.698;2024-01-10T01:48:58;2.00;72.80
66928;DHT22;59882;45.624;11.698;2024-01-10T01:51:26;2.00;73.10
66928;DHT22;59882;45.624;11.698;2024-01-10T01:53:52;2.00;73.50
66928;DHT22;59882;45.624;11.698;2024-01-10T01:56:18;2.00;73.90
66928;DHT22;59882;45.624;11.698;2024-01-10T01:58:45;1.90;73.70
66928;DHT22;59882;45.624;11.698;2024-01-10T02:01:12;2.00;73.70
66928;DHT22;59882;45.624;11.698;2024-01-10T02:03:38;2.00;74.00
66928;DHT22;59882;45.624;11.698;2024-01-10T02:06:04;2.10;74.30
66928;DHT22;59882;45.624;11.698;2024-01-10T02:08:33;2.10;74.00
66928;DHT22;59882;45.624;11.698;2024-01-10T02:11:00;2.20;74.10
66928;DHT22;59882;45.624;11.698;2024-01-10T02:13:26;2.20;73.90
66928;DHT22;59882;45.624;11.698;2024-01-10T02:15:52;2.20;74.10
66928;DHT22;59882;45.624;11.698;2024-01-10T02:18:19;2.20;73.60
66928;DHT22;59882;45.624;11.698;2024-01-10T02:20:45;2.30;73.60
66928;DHT22;59882;45.624;11.698;2024-01-10T02:23:11;2.30;73.50
66928;DHT22;59882;45.624;11.698;2024-01-10T02:25:38;2.30;73.50
66928;DHT22;59882;45.624;11.698;2024-01-10T02:28:04;2.30;73.20
66928;DHT22;59882;45.624;11.698;2024-01-10T02:30:30;2.30;73.20
66928;DHT22;59882;45.624;11.698;2024-01-10T02:32:55;2.30;72.90
66928;DHT22;59882;45.624;11.698;2024-01-10T02:35:21;2.30;72.50
66928;DHT22;59882;45.624;11.698;2024-01-10T02:37:47;2.30;72.70
66928;DHT22;59882;45.624;11.698;2024-01-10T02:40:15;2.30;72.70
66928;DHT22;59882;45.624;11.698;2024-01-10T02:42:41;2.20;72.80
66928;DHT22;59882;45.624;11.698;2024-01-10T02:45:07;2.20;72.80
66928;DHT22;59882;45.624;11.698;2024-01-10T02:47:33;2.20;72.70
66928;DHT22;59882;45.624;11.698;2024-01-10T02:49:58;2.20;72.70
66928;DHT22;59882;45.624;11.698;2024-01-10T02:52:24;2.10;72.70
66928;DHT22;59882;45.624;11.698;2024-01-10T02:54:50;2.10;72.80
66928;DHT22;59882;45.624;11.698;2024-01-10T02:57:15;2.10;72.90
66928;DHT22;59882;45.624;11.698;2024-01-10T02:59:41;2.10;73.20
66928;DHT22;59882;45.624;11.698;2024-01-10T03:02:06;2.10;73.20
66928;DHT22;59882;45.624;11.698;2024-01-10T03:04:32;2.10;73.20
66928;DHT22;59882;45.624;11.698;2024-01-10T03:06:58;2.10;73.10
66928;DHT22;59882;45.624;11.698;2024-01-10T03:09:23;2.10;72.80
66928;DHT22;59882;45.624;11.698;2024-01-10T03:11:49;2.10;72.70
66928;DHT22;59882;45.624;11.698;2024-01-10T03:14:15;2.10;72.70
66928;DHT22;59882;45.624;11.698;2024-01-10T03:16:40;2.20;72.80
66928;DHT22;59882;45.624;11.698;2024-01-10T03:19:06;2.10;73.10
66928;DHT22;59882;45.624;11.698;2024-01-10T03:21:32;2.10;73.10
66928;DHT22;59882;45.624;11.698;2024-01-10T03:23:59;2.10;72.90
66928;DHT22;59882;45.624;11.698;2024-01-10T03:26:25;2.00;73.50
66928;DHT22;59882;45.624;11.698;2024-01-10T03:28:52;2.00;73.40
66928;DHT22;59882;45.624;11.698;2024-01-10T03:31:18;2.00;73.20
66928;DHT22;59882;45.624;11.698;2024-01-10T03:33:44;2.00;73.40
66928;DHT22;59882;45.624;11.698;2024-01-10T03:36:12;2.00;73.30
66928;DHT22;59882;45.624;11.698;2024-01-10T03:38:38;1.90;73.50
66928;DHT22;59882;45.624;11.698;2024-01-10T03:41:03;1.90;73.80
66928;DHT22;59882;45.624;11.698;2024-01-10T03:43:29;1.90;73.70
66928;DHT22;59882;45.624;11.698;2024-01-10T03:45:54;1.80;73.50
66928;DHT22;59882;45.624;11.698;2024-01-10T03:48:20;1.80;73.30
66928;DHT22;59882;45.624;11.698;2024-01-10T03:50:46;1.80;73.20
66928;DHT22;59882;45.624;11.698;2024-01-10T03:53:12;1.80;73.00
66928;DHT22;59882;45.624;11.698;2024-01-10T03:55:37;1.70;72.70
66928;DHT22;59882;45.624;11.698;2024-01-10T03:58:04;1.70;72.60
66928;DHT22;59882;45.624;11.698;2024-01-10T04:00:30;1.60;72.70
66928;DHT22;59882;45.624;11.698;2024-01-10T04:02:56;1.60;72.70
66928;DHT22;59882;45.624;11.698;2024-01-10T04:05:21;1.60;72.70
66928;DHT22;59882;45.624;11.698;2024-01-10T04:07:48;1.60;72.80
66928;DHT22;59882;45.624;11.698;2024-01-10T04:10:13;1.50;72.90
66928;DHT22;59882;45.624;11.698;2024-01-10T04:12:48;1.50;72.90
66928;DHT22;59882;45.624;11.698;2024-01-10T04:15:14;1.50;73.00
66928;DHT22;59882;45.624;11.698;2024-01-10T04:17:40;1.40;73.20
66928;DHT22;59882;45.624;11.698;2024-01-10T04:20:06;1.40;73.40
66928;DHT22;59882;45.624;11.698;2024-01-10T04:22:32;1.40;73.50
66928;DHT22;59882;45.624;11.698;2024-01-10T04:24:59;1.40;73.90
66928;DHT22;59882;45.624;11.698;2024-01-10T04:27:25;1.30;73.70
66928;DHT22;59882;45.624;11.698;2024-01-10T04:29:51;1.30;73.80
66928;DHT22;59882;45.624;11.698;2024-01-10T04:32:16;1.30;73.90
66928;DHT22;59882;45.624;11.698;2024-01-10T04:34:42;1.30;74.10
66928;DHT22;59882;45.624;11.698;2024-01-10T04:37:07;1.30;73.90
66928;DHT22;59882;45.624;11.698;2024-01-10T04:39:36;1.40;73.90
66928;DHT22;59882;45.624;11.698;2024-01-10T04:42:03;1.40;74.00
66928;DHT22;59882;45.624;11.698;2024-01-10T04:44:29;1.40;74.50
66928;DHT22;59882;45.624;11.698;2024-01-10T04:46:55;1.40;74.50
66928;DHT22;59882;45.624;11.698;2024-01-10T04:49:20;1.40;74.40
66928;DHT22;59882;45.624;11.698;2024-01-10T04:51:46;1.40;74.70
66928;DHT22;59882;45.624;11.698;2024-01-10T04:54:12;1.40;74.80
66928;DHT22;59882;45.624;11.698;2024-01-10T04:56:37;1.30;74.70
66928;DHT22;59882;45.624;11.698;2024-01-10T04:59:03;1.30;75.20
66928;DHT22;59882;45.624;11.698;2024-01-10T05:01:29;1.30;75.20
66928;DHT22;59882;45.624;11.698;2024-01-10T05:03:55;1.30;75.20
66928;DHT22;59882;45.624;11.698;2024-01-10T05:06:21;1.20;75.30
66928;DHT22;59882;45.624;11.698;2024-01-10T05:08:46;1.30;75.30
66928;DHT22;59882;45.624;11.698;2024-01-10T05:11:13;1.30;75.10
66928;DHT22;59882;45.624;11.698;2024-01-10T05:13:39;1.30;75.00
66928;DHT22;59882;45.624;11.698;2024-01-10T05:16:05;1.30;75.00
66928;DHT22;59882;45.624;11.698;2024-01-10T05:18:31;1.30;75.00
66928;DHT22;59882;45.624;11.698;2024-01-10T05:20:57;1.30;75.00
66928;DHT22;59882;45.624;11.698;2024-01-10T05:23:23;1.30;75.00
66928;DHT22;59882;45.624;11.698;2024-01-10T05:25:49;1.30;74.90
66928;DHT22;59882;45.624;11.698;2024-01-10T05:28:15;1.30;74.80
66928;DHT22;59882;45.624;11.698;2024-01-10T05:30:41;1.30;74.80
66928;DHT22;59882;45.624;11.698;2024-01-10T05:33:08;1.40;74.70
66928;DHT22;59882;45.624;11.698;2024-01-10T05:35:34;1.40;74.60
66928;DHT22;59882;45.624;11.698;2024-01-10T05:38:01;1.40;74.60
66928;DHT22;59882;45.624;11.698;2024-01-10T05:40:28;1.40;74.50
66928;DHT22;59882;45.624;11.698;2024-01-10T05:42:56;1.50;74.40
66928;DHT22;59882;45.624;11.698;2024-01-10T05:45:21;1.50;74.30
66928;DHT22;59882;45.624;11.698;2024-01-10T05:47:47;1.50;74.20
66928;DHT22;59882;45.624;11.698;2024-01-10T05:50:14;1.50;74.10
66928;DHT22;59882;45.624;11.698;2024-01-10T05:52:39;1.50;74.00
66928;DHT22;59882;45.624;11.698;2024-01-10T05:55:06;1.50;74.00
66928;DHT22;59882;45.624;11.698;2024-01-10T05:57:37;1.50;73.90
66928;DHT22;59882;45.624;11.698;2024-01-10T06:00:03;1.60;73.80
66928;DHT22;59882;45.624;11.698;2024-01-10T06:02:30;1.50;74.10
66928;DHT22;59882;45.624;11.698;2024-01-10T06:04:55;1.60;73.90
66928;DHT22;59882;45.624;11.698;2024-01-10T06:07:21;1.50;73.80
66928;DHT22;59882;45.624;11.698;2024-01-10T06:09:47;1.50;73.90
66928;DHT22;59882;45.624;11.698;2024-01-10T06:12:13;1.50;74.00
66928;DHT22;59882;45.624;11.698;2024-01-10T06:14:39;1.60;73.90
66928;DHT22;59882;45.624;11.698;2024-01-10T06:17:05;1.60;73.90
66928;DHT22;59882;45.624;11.698;2024-01-10T06:19:31;1.60;74.00
66928;DHT22;59882;45.624;11.698;2024-01-10T06:21:57;1.60;73.90
66928;DHT22;59882;45.624;11.698;2024-01-10T06:24:23;1.60;74.00
66928;DHT22;59882;45.624;11.698;2024-01-10T06:26:49;1.70;73.90
66928;DHT22;59882;45.624;11.698;2024-01-10T06:29:18;1.70;73.80
66928;DHT22;59882;45.624;11.698;2024-01-10T06:31:44;1.70;73.80
66928;DHT22;59882;45.624;11.698;2024-01-10T06:34:10;1.80;73.90
66928;DHT22;59882;45.624;11.698;2024-01-10T06:36:36;1.70;73.90
66928;DHT22;59882;45.624;11.698;2024-01-10T06:39:02;1.80;73.80
66928;DHT22;59882;45.624;11.698;2024-01-10T06:41:28;1.80;73.70
66928;DHT22;59882;45.624;11.698;2024-01-10T06:43:54;1.80;73.70
66928;DHT22;59882;45.624;11.698;2024-01-10T06:46:20;1.80;73.60
66928;DHT22;59882;45.624;11.698;2024-01-10T06:48:46;1.80;73.50
66928;DHT22;59882;45.624;11.698;2024-01-10T06:51:13;1.80;73.60
66928;DHT22;59882;45.624;11.698;2024-01-10T06:53:39;1.90;73.60
66928;DHT22;59882;45.624;11.698;2024-01-10T06:56:06;1.90;73.60
66928;DHT22;59882;45.624;11.698;2024-01-10T06:58:32;1.90;73.60
66928;DHT22;59882;45.624;11.698;2024-01-10T07:00:58;1.90;73.60
66928;DHT22;59882;45.624;11.698;2024-01-10T07:03:26;1.90;73.60
66928;DHT22;59882;45.624;11.698;2024-01-10T07:05:51;1.90;73.70
66928;DHT22;59882;45.624;11.698;2024-01-10T07:08:17;2.00;73.70
66928;DHT22;59882;45.624;11.698;2024-01-10T07:10:43;2.00;73.60
66928;DHT22;59882;45.624;11.698;2024-01-10T07:13:08;2.00;73.50
66928;DHT22;59882;45.624;11.698;2024-01-10T07:15:34;2.10;73.40
66928;DHT22;59882;45.624;11.698;2024-01-10T07:17:59;2.10;73.10
66928;DHT22;59882;45.624;11.698;2024-01-10T07:20:25;2.10;72.90
66928;DHT22;59882;45.624;11.698;2024-01-10T07:22:51;2.20;72.80
66928;DHT22;59882;45.624;11.698;2024-01-10T07:25:17;2.20;72.40
66928;DHT22;59882;45.624;11.698;2024-01-10T07:27:43;2.20;72.00
66928;DHT22;59882;45.624;11.698;2024-01-10T07:30:09;2.20;71.70
66928;DHT22;59882;45.624;11.698;2024-01-10T07:32:44;2.20;71.70
66928;DHT22;59882;45.624;11.698;2024-01-10T07:35:11;2.20;71.60
66928;DHT22;59882;45.624;11.698;2024-01-10T07:37:40;2.20;71.60
66928;DHT22;59882;45.624;11.698;2024-01-10T07:40:07;2.20;71.60
66928;DHT22;59882;45.624;11.698;2024-01-10T07:42:34;2.20;71.50
66928;DHT22;59882;45.624;11.698;2024-01-10T07:45:00;2.30;71.60
66928;DHT22;59882;45.624;11.698;2024-01-10T07:47:30;2.30;71.70
66928;DHT22;59882;45.624;11.698;2024-01-10T07:49:56;2.30;71.50
66928;DHT22;59882;45.624;11.698;2024-01-10T07:52:22;2.30;71.60
66928;DHT22;59882;45.624;11.698;2024-01-10T07:54:47;2.30;71.70
66928;DHT22;59882;45.624;11.698;2024-01-10T07:57:13;2.30;71.70
66928;DHT22;59882;45.624;11.698;2024-01-10T07:59:39;2.30;71.70
66928;DHT22;59882;45.624;11.698;2024-01-10T08:02:05;2.30;71.80
66928;DHT22;59882;45.624;11.698;2024-01-10T08:04:30;2.40;72.00
66928;DHT22;59882;45.624;11.698;2024-01-10T08:06:56;2.40;71.90
66928;DHT22;59882;45.624;11.698;2024-01-10T08:09:22;2.40;71.80
66928;DHT22;59882;45.624;11.698;2024-01-10T08:11:49;2.40;71.70
66928;DHT22;59882;45.624;11.698;2024-01-10T08:14:15;2.50;71.80
66928;DHT22;59882;45.624;11.698;2024-01-10T08:16:41;2.50;71.50
66928;DHT22;59882;45.624;11.698;2024-01-10T08:19:08;2.60;71.30
66928;DHT22;59882;45.624;11.698;2024-01-10T08:21:33;2.60;71.30
66928;DHT22;59882;45.624;11.698;2024-01-10T08:24:02;2.70;71.10
66928;DHT22;59882;45.624;11.698;2024-01-10T08:26:27;2.70;71.10
66928;DHT22;59882;45.624;11.698;2024-01-10T08:28:53;2.70;71.10
66928;DHT22;59882;45.624;11.698;2024-01-10T08:31:19;2.70;71.10
66928;DHT22;59882;45.624;11.698;2024-01-10T08:33:45;2.80;71.10
66928;DHT22;59882;45.624;11.698;2024-01-10T08:36:12;2.80;71.00
66928;DHT22;59882;45.624;11.698;2024-01-10T08:38:38;2.80;71.10
66928;DHT22;59882;45.624;11.698;2024-01-10T08:41:04;2.80;71.10
66928;DHT22;59882;45.624;11.698;2024-01-10T08:43:30;2.90;71.10
66928;DHT22;59882;45.624;11.698;2024-01-10T08:45:56;2.90;71.00
66928;DHT22;59882;45.624;11.698;2024-01-10T08:48:23;2.90;71.10
66928;DHT22;59882;45.624;11.698;2024-01-10T08:50:50;3.00;71.10
66928;DHT22;59882;45.624;11.698;2024-01-10T08:53:15;3.00;71.10
66928;DHT22;59882;45.624;11.698;2024-01-10T08:55:41;3.10;70.80
66928;DHT22;59882;45.624;11.698;2024-01-10T08:58:07;3.10;70.80
66928;DHT22;59882;45.624;11.698;2024-01-10T09:00:33;3.20;70.70
66928;DHT22;59882;45.624;11.698;2024-01-10T09:03:00;3.30;70.40
66928;DHT22;59882;45.624;11.698;2024-01-10T09:05:26;3.30;70.10
66928;DHT22;59882;45.624;11.698;2024-01-10T09:07:51;3.40;70.10
66928;DHT22;59882;45.624;11.698;2024-01-10T09:10:19;3.50;70.00
66928;DHT22;59882;45.624;11.698;2024-01-10T09:12:47;3.60;69.90
66928;DHT22;59882;45.624;11.698;2024-01-10T09:15:13;3.70;69.40
66928;DHT22;59882;45.624;11.698;2024-01-10T09:17:41;3.80;68.90
66928;DHT22;59882;45.624;11.698;2024-01-10T09:20:07;3.90;66.80
66928;DHT22;59882;45.624;11.698;2024-01-10T09:22:34;4.00;66.80
66928;DHT22;59882;45.624;11.698;2024-01-10T09:24:59;4.00;65.60
66928;DHT22;59882;45.624;11.698;2024-01-10T09:27:32;4.10;65.00
66928;DHT22;59882;45.624;11.698;2024-01-10T09:29:59;4.20;64.40
66928;DHT22;59882;45.624;11.698;2024-01-10T09:32:25;4.30;64.50
66928;DHT22;59882;45.624;11.698;2024-01-10T09:34:51;4.30;63.60
66928;DHT22;59882;45.624;11.698;2024-01-10T09:37:16;4.40;63.10
66928;DHT22;59882;45.624;11.698;2024-01-10T09:39:42;4.50;63.00
66928;DHT22;59882;45.624;11.698;2024-01-10T09:42:08;4.50;62.90
66928;DHT22;59882;45.624;11.698;2024-01-10T09:44:34;4.60;62.40
66928;DHT22;59882;45.624;11.698;2024-01-10T09:47:00;4.70;62.10
66928;DHT22;59882;45.624;11.698;2024-01-10T09:49:27;4.80;61.90
66928;DHT22;59882;45.624;11.698;2024-01-10T09:51:59;4.80;62.10
66928;DHT22;59882;45.624;11.698;2024-01-10T09:54:30;4.90;61.70
66928;DHT22;59882;45.624;11.698;2024-01-10T09:56:59;4.90;61.40
66928;DHT22;59882;45.624;11.698;2024-01-10T09:59:25;4.90;60.20
66928;DHT22;59882;45.624;11.698;2024-01-10T10:01:56;5.00;60.30
66928;DHT22;59882;45.624;11.698;2024-01-10T10:04:22;5.00;60.90
66928;DHT22;59882;45.624;11.698;2024-01-10T10:06:58;5.10;58.50
66928;DHT22;59882;45.624;11.698;2024-01-10T10:09:25;5.00;58.40
66928;DHT22;59882;45.624;11.698;2024-01-10T10:11:55;5.10;58.60
66928;DHT22;59882;45.624;11.698;2024-01-10T10:14:21;5.10;57.00
66928;DHT22;59882;45.624;11.698;2024-01-10T10:16:47;5.10;56.70
66928;DHT22;59882;45.624;11.698;2024-01-10T10:19:22;5.10;56.40
66928;DHT22;59882;45.624;11.698;2024-01-10T10:21:48;5.20;55.60
66928;DHT22;59882;45.624;11.698;2024-01-10T10:24:14;5.20;54.90
66928;DHT22;59882;45.624;11.698;2024-01-10T10:26:40;5.20;55.00
66928;DHT22;59882;45.624;11.698;2024-01-10T10:29:07;5.20;53.30
66928;DHT22;59882;45.624;11.698;2024-01-10T10:31:32;5.20;53.20
66928;DHT22;59882;45.624;11.698;2024-01-10T10:34:00;5.20;52.50
66928;DHT22;59882;45.624;11.698;2024-01-10T10:36:27;5.20;52.40
66928;DHT22;59882;45.624;11.698;2024-01-10T10:38:53;5.30;54.20
66928;DHT22;59882;45.624;11.698;2024-01-10T10:41:19;5.30;53.70
66928;DHT22;59882;45.624;11.698;2024-01-10T10:43:44;5.30;53.50
66928;DHT22;59882;45.624;11.698;2024-01-10T10:46:11;5.40;52.80
66928;DHT22;59882;45.624;11.698;2024-01-10T10:48:40;5.40;52.90
66928;DHT22;59882;45.624;11.698;2024-01-10T10:51:26;5.40;53.00
66928;DHT22;59882;45.624;11.698;2024-01-10T10:53:55;5.40;51.80
66928;DHT22;59882;45.624;11.698;2024-01-10T10:56:21;5.50;51.70
66928;DHT22;59882;45.624;11.698;2024-01-10T10:58:49;5.50;51.70
66928;DHT22;59882;45.624;11.698;2024-01-10T11:01:16;5.50;51.10
66928;DHT22;59882;45.624;11.698;2024-01-10T11:03:42;5.50;51.70
66928;DHT22;59882;45.624;11.698;2024-01-10T11:06:10;5.60;52.50
66928;DHT22;59882;45.624;11.698;2024-01-10T11:08:36;5.60;51.00
66928;DHT22;59882;45.624;11.698;2024-01-10T11:11:14;5.60;51.40
66928;DHT22;59882;45.624;11.698;2024-01-10T11:25:18;5.90;47.00
66928;DHT22;59882;45.624;11.698;2024-01-10T11:27:44;6.10;47.50
66928;DHT22;59882;45.624;11.698;2024-01-10T11:30:12;6.10;47.40
66928;DHT22;59882;45.624;11.698;2024-01-10T11:32:38;6.30;45.80
66928;DHT22;59882;45.624;11.698;2024-01-10T11:35:19;6.30;45.80
66928;DHT22;59882;45.624;11.698;2024-01-10T11:37:47;6.40;45.70
66928;DHT22;59882;45.624;11.698;2024-01-10T11:40:15;6.50;44.80
66928;DHT22;59882;45.624;11.698;2024-01-10T11:42:47;6.60;45.90
66928;DHT22;59882;45.624;11.698;2024-01-10T11:45:36;6.70;45.00
66928;DHT22;59882;45.624;11.698;2024-01-10T11:48:01;6.80;44.70
66928;DHT22;59882;45.624;11.698;2024-01-10T11:50:28;6.90;44.60
66928;DHT22;59882;45.624;11.698;2024-01-10T11:52:56;7.00;44.50
66928;DHT22;59882;45.624;11.698;2024-01-10T11:55:47;7.10;44.00
66928;DHT22;59882;45.624;11.698;2024-01-10T11:58:13;7.20;45.00
66928;DHT22;59882;45.624;11.698;2024-01-10T12:00:40;7.30;43.20
66928;DHT22;59882;45.624;11.698;2024-01-10T12:03:10;7.30;43.90
66928;DHT22;59882;45.624;11.698;2024-01-10T12:05:36;7.50;44.70
66928;DHT22;59882;45.624;11.698;2024-01-10T12:08:07;7.50;44.50
66928;DHT22;59882;45.624;11.698;2024-01-10T12:10:33;7.70;43.80
66928;DHT22;59882;45.624;11.698;2024-01-10T12:13:03;7.90;45.10
66928;DHT22;59882;45.624;11.698;2024-01-10T12:15:29;8.10;43.50
66928;DHT22;59882;45.624;11.698;2024-01-10T12:17:55;8.70;44.30
66928;DHT22;59882;45.624;11.698;2024-01-10T12:20:21;9.50;41.50
66928;DHT22;59882;45.624;11.698;2024-01-10T12:22:47;10.10;39.60
66928;DHT22;59882;45.624;11.698;2024-01-10T12:25:12;10.40;38.50
66928;DHT22;59882;45.624;11.698;2024-01-10T12:27:38;10.70;38.20
66928;DHT22;59882;45.624;11.698;2024-01-10T12:30:05;10.90;39.60
66928;DHT22;59882;45.624;11.698;2024-01-10T12:32:31;11.10;37.30
66928;DHT22;59882;45.624;11.698;2024-01-10T12:35:04;11.50;37.60
66928;DHT22;59882;45.624;11.698;2024-01-10T12:37:31;12.10;36.70
66928;DHT22;59882;45.624;11.698;2024-01-10T12:39:56;12.60;35.80
66928;DHT22;59882;45.624;11.698;2024-01-10T12:42:22;12.80;33.60
66928;DHT22;59882;45.624;11.698;2024-01-10T12:44:49;12.90;35.30
66928;DHT22;59882;45.624;11.698;2024-01-10T12:47:19;13.20;33.50
66928;DHT22;59882;45.624;11.698;2024-01-10T12:49:45;13.50;32.60
66928;DHT22;59882;45.624;11.698;2024-01-10T12:52:12;13.90;34.50
66928;DHT22;59882;45.624;11.698;2024-01-10T12:54:39;14.30;32.40
66928;DHT22;59882;45.624;11.698;2024-01-10T12:57:05;14.40;33.80
66928;DHT22;59882;45.624;11.698;2024-01-10T12:59:31;14.30;30.40
66928;DHT22;59882;45.624;11.698;2024-01-10T13:01:56;14.30;30.50
66928;DHT22;59882;45.624;11.698;2024-01-10T13:04:22;14.40;32.30
66928;DHT22;59882;45.624;11.698;2024-01-10T13:06:48;14.40;31.30
66928;DHT22;59882;45.624;11.698;2024-01-10T13:09:14;14.40;30.70
66928;DHT22;59882;45.624;11.698;2024-01-10T13:11:39;14.50;32.30
66928;DHT22;59882;45.624;11.698;2024-01-10T13:14:05;14.50;31.40
66928;DHT22;59882;45.624;11.698;2024-01-10T13:16:30;14.50;31.00
66928;DHT22;59882;45.624;11.698;2024-01-10T13:18:56;14.40;30.40
66928;DHT22;59882;45.624;11.698;2024-01-10T13:21:24;14.40;30.80
66928;DHT22;59882;45.624;11.698;2024-01-10T13:23:50;14.40;30.50
66928;DHT22;59882;45.624;11.698;2024-01-10T13:26:16;14.40;30.40
66928;DHT22;59882;45.624;11.698;2024-01-10T13:28:43;14.30;30.80
66928;DHT22;59882;45.624;11.698;2024-01-10T13:31:09;14.20;31.30
66928;DHT22;59882;45.624;11.698;2024-01-10T13:33:35;14.20;31.20
66928;DHT22;59882;45.624;11.698;2024-01-10T13:36:00;14.20;32.10
66928;DHT22;59882;45.624;11.698;2024-01-10T13:38:26;14.00;31.20
66928;DHT22;59882;45.624;11.698;2024-01-10T13:40:52;13.90;31.10
66928;DHT22;59882;45.624;11.698;2024-01-10T13:43:18;13.80;31.30
66928;DHT22;59882;45.624;11.698;2024-01-10T13:45:43;13.70;31.50
66928;DHT22;59882;45.624;11.698;2024-01-10T13:48:09;13.70;31.90
66928;DHT22;59882;45.624;11.698;2024-01-10T13:50:36;13.60;31.80
66928;DHT22;59882;45.624;11.698;2024-01-10T13:53:01;13.60;30.80
66928;DHT22;59882;45.624;11.698;2024-01-10T13:55:29;13.60;32.20
66928;DHT22;59882;45.624;11.698;2024-01-10T13:57:55;13.80;31.50
66928;DHT22;59882;45.624;11.698;2024-01-10T14:00:22;13.90;32.90
66928;DHT22;59882;45.624;11.698;2024-01-10T14:02:48;13.90;31.30
66928;DHT22;59882;45.624;11.698;2024-01-10T14:05:16;14.00;30.90
66928;DHT22;59882;45.624;11.698;2024-01-10T14:07:41;13.90;31.00
66928;DHT22;59882;45.624;11.698;2024-01-10T14:10:11;13.80;31.80
66928;DHT22;59882;45.624;11.698;2024-01-10T14:12:38;13.60;31.40
66928;DHT22;59882;45.624;11.698;2024-01-10T14:15:04;13.40;32.40
66928;DHT22;59882;45.624;11.698;2024-01-10T14:17:30;13.10;31.70
66928;DHT22;59882;45.624;11.698;2024-01-10T14:19:55;12.90;32.80
66928;DHT22;59882;45.624;11.698;2024-01-10T14:22:21;12.50;33.30
66928;DHT22;59882;45.624;11.698;2024-01-10T14:24:49;12.10;33.80
66928;DHT22;59882;45.624;11.698;2024-01-10T14:27:14;11.70;34.40
66928;DHT22;59882;45.624;11.698;2024-01-10T14:29:40;11.30;34.90
66928;DHT22;59882;45.624;11.698;2024-01-10T14:32:06;10.90;35.60
66928;DHT22;59882;45.624;11.698;2024-01-10T14:34:31;10.60;35.90
66928;DHT22;59882;45.624;11.698;2024-01-10T14:36:57;10.30;36.80
66928;DHT22;59882;45.624;11.698;2024-01-10T14:39:23;10.10;37.40
66928;DHT22;59882;45.624;11.698;2024-01-10T14:41:51;9.90;37.90
66928;DHT22;59882;45.624;11.698;2024-01-10T14:44:17;9.70;38.90
66928;DHT22;59882;45.624;11.698;2024-01-10T14:46:43;9.40;38.80
66928;DHT22;59882;45.624;11.698;2024-01-10T14:49:08;9.30;39.20
66928;DHT22;59882;45.624;11.698;2024-01-10T14:51:34;9.10;40.10
66928;DHT22;59882;45.624;11.698;2024-01-10T14:54:00;8.90;39.60
66928;DHT22;59882;45.624;11.698;2024-01-10T14:56:25;8.80;39.70
66928;DHT22;59882;45.624;11.698;2024-01-10T14:58:51;8.60;40.50
66928;DHT22;59882;45.624;11.698;2024-01-10T15:01:17;8.50;41.10
66928;DHT22;59882;45.624;11.698;2024-01-10T15:03:43;8.30;41.30
66928;DHT22;59882;45.624;11.698;2024-01-10T15:06:09;8.20;41.70
66928;DHT22;59882;45.624;11.698;2024-01-10T15:08:34;8.10;42.00
66928;DHT22;59882;45.624;11.698;2024-01-10T15:11:01;7.90;42.80
66928;DHT22;59882;45.624;11.698;2024-01-10T15:13:26;7.80;43.00
66928;DHT22;59882;45.624;11.698;2024-01-10T15:15:52;7.70;43.60
66928;DHT22;59882;45.624;11.698;2024-01-10T15:18:18;7.60;43.70
66928;DHT22;59882;45.624;11.698;2024-01-10T15:20:45;7.50;43.90
66928;DHT22;59882;45.624;11.698;2024-01-10T15:23:11;7.40;43.50
66928;DHT22;59882;45.624;11.698;2024-01-10T15:25:36;7.30;44.00
66928;DHT22;59882;45.624;11.698;2024-01-10T15:28:02;7.20;44.30
66928;DHT22;59882;45.624;11.698;2024-01-10T15:30:29;7.10;44.40
66928;DHT22;59882;45.624;11.698;2024-01-10T15:32:55;7.00;44.80
66928;DHT22;59882;45.624;11.698;2024-01-10T15:35:20;6.90;45.20